x

Central Aleutians 230nm Sw Dutch Harbor (46072) Wave Buoy

7:50 - Sat 31st Jan 2015 All times are UTC.

  • Sig Wave height 8.5ft
  • Peak Period 8s
  • Average Period 6s
  • Wind
    18mph, 25mph gusts
  • Sea Temp 41°f
  • Luft Temp 39°f
  • Sea Pressure 1017.3mb

More Historic Weather Station data

Upgrade to MSW Pro to gain access to the past 30 days of data for over 8000 Wavebouys and Weather Stations around the globe.

Join Pro

Comparision Forecast

View Surf forecast
   
Sa 01/31 7:50 8.5ft 8s 6s 18 25 mph 1017.3mb 41f 39f
6:50 8ft 8s 6s 18 22 mph 1017.7mb 41f 39f
5:50 8ft 8s 6s 20 27 mph 1018.1mb 41f 38f
4:50 8ft 9s 6s 22 29 mph 1018.3mb 41f 38f
3:50 7.5ft 10s 6s 20 25 mph 1019.1mb 41f 38f
2:50 7ft 10s 5s 22 27 mph 1019.6mb 41f 38f
1:50 7ft 9s 5s 22 27 mph 1020.1mb 40f 38f
12:50 6.5ft 11s 6s 22 27 mph 1020.5mb 41f 38f
11:50 6ft 11s 5s 18 22 mph 1021.1mb 41f 38f
10:50 7ft 9s 6s 20 25 mph 1021.8mb 40f 38f
9:50 7.5ft 9s 6s 18 22 mph 1022.3mb 40f 38f
8:50 8ft 10s 6s 16 20 mph 1022.9mb 40f 38f
7:50 8.5ft 9s 6s 18 22 mph 1023.3mb 40f 37f
6:50 9.5ft 10s 6s 20 25 mph 1023.2mb 40f 37f
5:50 10ft 10s 6s 20 25 mph 1023.8mb 41f 37f
4:50 10ft 9s 6s 20 25 mph 1024.2mb 41f 37f
3:50 9.5ft 9s 6s 20 27 mph 1024mb 41f 37f
2:50 10ft 10s 6s 20 25 mph 1024.1mb 41f 37f
1:50 11ft 10s 6s 25 29 mph 1024.3mb 40f 37f
12:50 10.5ft 11s 6s 22 29 mph 1024.8mb 40f 37f
Fr 01/30 11:50 11ft 11s 6s 25 29 mph 1025.4mb 41f 37f
10:50 11.5ft 10s 6s 25 29 mph 1026.3mb 41f 37f
9:50 12ft 11s 6s 22 29 mph 1026.7mb 41f 37f
8:50 13ft 10s 7s 25 31 mph 1027mb 41f 37f
7:50 12ft 10s 7s 22 29 mph 1026.8mb 41f 37f
6:50 12.5ft 11s 7s 25 29 mph 1026.5mb 41f 37f
5:50 14ft 11s 7s 25 29 mph 1026.6mb 41f 37f
4:50 13.5ft 11s 7s 25 31 mph 1026.6mb 41f 37f
3:50 12.5ft 12s 7s 25 31 mph 1026.7mb 41f 37f
2:50 12.5ft 12s 7s 29 34 mph 1026.8mb 41f 37f
1:50 12.5ft 12s 7s 29 36 mph 1027.2mb 41f 37f
12:50 12.5ft 13s 7s 29 36 mph 1027.1mb 41f 37f
11:50 12ft 12s 6s 29 36 mph 1027.2mb 41f 37f
10:50 12ft 8s 6s 31 38 mph 1027mb 41f 37f
9:50 14ft 11s 7s 29 36 mph 1027mb 41f 37f
8:50 15.5ft 11s 7s 31 38 mph 1026.7mb 41f 37f
7:50 16ft 11s 7s 34 43 mph 1026.9mb 41f 37f
6:50 15ft 11s 7s 34 40 mph 1026.7mb 41f 37f
5:50 15.5ft 11s 7s 31 40 mph 1026.8mb 41f 37f
4:50 18ft 11s 8s 34 40 mph 1026.4mb 41f 36f
3:50 18ft 11s 8s 36 43 mph 1026mb 41f 36f
2:50 17.5ft 12s 7s 34 43 mph 1025.6mb 41f 37f
1:50 17ft 11s 7s 36 43 mph 1025.1mb 41f 36f
12:50 19.5ft 12s 8s 36 45 mph 1024.7mb 41f 36f
Do 01/29 11:50 15ft 12s 7s 34 43 mph 1024.9mb 41f 36f
10:50 17.5ft 12s 7s 36 43 mph 1024.8mb 41f 36f
9:50 19.5ft 11s  -  34 45 mph 1025.1mb 41f 36f
8:50 19.5ft 11s 8s 36 43 mph 1025.2mb 41f 36f
7:50 19.5ft 11s 8s 34 43 mph 1025.1mb 41f 36f
6:50 19.5ft 11s 8s 38 47 mph 1024.3mb 41f 36f
5:50 19.5ft 12s 8s 38 45 mph 1023.8mb 41f 36f
4:50 19.5ft 13s 8s 36 45 mph 1023.8mb 41f 36f
3:50 18.5ft 13s 8s 36 45 mph 1023.7mb 40f 36f
2:50 16.5ft 13s 7s 36 47 mph 1023.7mb 40f 36f
1:50 18.5ft 12s 8s 34 45 mph 1023.7mb 41f 36f
12:50 15.5ft 13s 8s 34 43 mph 1023.1mb 42f 36f
11:50 16.5ft 13s 7s 36 43 mph 1022.4mb 42f 36f
10:50 17.5ft 13s 8s 36 45 mph 1021.7mb 42f 36f
9:50 17ft 13s 8s 36 43 mph 1021.4mb 41f 37f
8:50 18.5ft 11s 7s 36 47 mph 1020.8mb 41f 37f
7:50 21.5ft 12s 8s 36 47 mph 1020.3mb 41f 37f
6:50 20ft 13s 8s 38 49 mph 1019.3mb 41f 37f
5:50 22.5ft 11s 8s 38 47 mph 1018.6mb 41f 36f
4:50 22.5ft 11s 8s 38 47 mph 1017.8mb 41f 36f
3:50 23ft 11s 8s 40 49 mph 1016.9mb 41f 37f
2:50 22.5ft 11s 8s 38 47 mph 1016.1mb 41f 37f
1:50 19ft 11s 8s 38 49 mph 1015.3mb 40f 37f
12:50 20.5ft 12s 8s 40 49 mph 1014.9mb 41f 37f
Mi 01/28 11:50 20ft 11s 8s 40 51 mph 1014mb 41f 38f
10:50 19.5ft 11s 8s 40 47 mph 1013.6mb 41f 38f
9:50 19.5ft 11s 8s 40 54 mph 1012.7mb 41f 38f
8:50 20ft 12s 8s 43 54 mph 1012.1mb 41f 38f
7:50 19.5ft 12s 8s 40 51 mph 1011.5mb 41f 38f
6:50 21.5ft 11s 8s 40 49 mph 1010.4mb 41f 38f
5:50 19.5ft 12s 8s 40 49 mph 1009.7mb 41f 38f
4:50 19ft 13s 8s 36 47 mph 1009mb 41f 38f
3:50 21ft 11s 8s 38 47 mph 1008.3mb 41f 38f
2:50 19ft 12s 8s 38 45 mph 1007.5mb 41f 39f
1:50 20.5ft 13s 9s 36 43 mph 1007mb 42f 39f
12:50 20.5ft 13s 9s 36 45 mph 1006mb 42f 39f
11:50 21.5ft 13s 9s 38 45 mph 1004.9mb 42f 39f
10:50 20ft 12s 8s 36 45 mph 1004.4mb 42f 38f
9:50 18.5ft 13s 8s 38 47 mph 1003.3mb 42f 38f
8:50 18.5ft 14s 8s 38 47 mph 1002.5mb 42f 38f
7:50 19.5ft 11s 8s 38 49 mph 1001.7mb 41f 37f
6:50 16.5ft 10s 7s 38 49 mph 1001.2mb 41f 37f
5:50 18ft 11s 7s 38 45 mph 1000.6mb 40f 37f
4:50 17.5ft 11s 7s 38 47 mph 1000mb 41f 37f
3:50 15.5ft 11s 7s 38 45 mph 999.5mb 40f 37f
2:50 16.5ft 8s 7s 36 43 mph 999.1mb 40f 37f
1:50 15.5ft 11s 7s 36 45 mph 998.6mb 41f 38f
12:50 15ft 8s 7s 34 43 mph 998.4mb 41f 38f
Di 01/27 11:50 15.5ft 11s 7s 34 40 mph 998.4mb 40f 38f
10:50 14ft 10s 7s 29 36 mph 998.5mb 40f 37f
9:50 13ft 8s 6s 34 43 mph 998.3mb 40f 37f